sensor_id;sensor_type;location;lat;lon;timestamp;temperature;humidity
32769;DHT22;23049;54.304;8.826;2023-01-28T00:00:49;-1.20;99.90
32769;DHT22;23049;54.304;8.826;2023-01-28T00:03:14;-1.10;99.90
32769;DHT22;23049;54.304;8.826;2023-01-28T00:05:40;-1.00;99.90
32769;DHT22;23049;54.304;8.826;2023-01-28T00:08:06;-0.90;99.90
32769;DHT22;23049;54.304;8.826;2023-01-28T00:10:31;-0.90;99.90
32769;DHT22;23049;54.304;8.826;2023-01-28T00:12:57;-0.90;99.90
32769;DHT22;23049;54.304;8.826;2023-01-28T00:15:22;-0.90;99.90
32769;DHT22;23049;54.304;8.826;2023-01-28T00:17:49;-1.00;99.90
32769;DHT22;23049;54.304;8.826;2023-01-28T00:20:15;-1.40;99.90
32769;DHT22;23049;54.304;8.826;2023-01-28T00:22:45;-1.50;99.90
32769;DHT22;23049;54.304;8.826;2023-01-28T00:25:11;-1.50;99.90
32769;DHT22;23049;54.304;8.826;2023-01-28T00:27:36;-1.50;99.90
32769;DHT22;23049;54.304;8.826;2023-01-28T00:30:02;-1.60;99.90
32769;DHT22;23049;54.304;8.826;2023-01-28T00:32:28;-1.60;99.90
32769;DHT22;23049;54.304;8.826;2023-01-28T00:34:53;-1.70;99.90
32769;DHT22;23049;54.304;8.826;2023-01-28T00:37:19;-1.80;99.90
32769;DHT22;23049;54.304;8.826;2023-01-28T00:39:44;-2.00;99.90
32769;DHT22;23049;54.304;8.826;2023-01-28T00:42:10;-1.70;99.90
32769;DHT22;23049;54.304;8.826;2023-01-28T00:44:35;-1.80;99.90
32769;DHT22;23049;54.304;8.826;2023-01-28T00:47:01;-1.80;99.90
32769;DHT22;23049;54.304;8.826;2023-01-28T00:49:26;-1.90;99.90
32769;DHT22;23049;54.304;8.826;2023-01-28T00:51:52;-2.00;99.90
32769;DHT22;23049;54.304;8.826;2023-01-28T00:54:17;-2.10;99.90
32769;DHT22;23049;54.304;8.826;2023-01-28T00:56:43;-2.10;99.90
32769;DHT22;23049;54.304;8.826;2023-01-28T00:59:08;-2.20;99.90
32769;DHT22;23049;54.304;8.826;2023-01-28T01:01:34;-2.30;99.90
32769;DHT22;23049;54.304;8.826;2023-01-28T01:03:59;-2.40;99.90
32769;DHT22;23049;54.304;8.826;2023-01-28T01:06:35;-2.50;99.90
32769;DHT22;23049;54.304;8.826;2023-01-28T01:09:02;-2.40;99.90
32769;DHT22;23049;54.304;8.826;2023-01-28T01:11:28;-2.30;99.90
32769;DHT22;23049;54.304;8.826;2023-01-28T01:13:54;-2.00;99.90
32769;DHT22;23049;54.304;8.826;2023-01-28T01:16:21;-1.70;99.90
32769;DHT22;23049;54.304;8.826;2023-01-28T01:18:47;-1.60;99.90
32769;DHT22;23049;54.304;8.826;2023-01-28T01:21:14;-1.60;99.90
32769;DHT22;23049;54.304;8.826;2023-01-28T01:23:39;-1.50;99.90
32769;DHT22;23049;54.304;8.826;2023-01-28T01:26:05;-1.50;99.90
32769;DHT22;23049;54.304;8.826;2023-01-28T01:28:31;-1.50;99.90
32769;DHT22;23049;54.304;8.826;2023-01-28T01:31:00;-1.40;99.90
32769;DHT22;23049;54.304;8.826;2023-01-28T01:33:29;-1.40;99.90
32769;DHT22;23049;54.304;8.826;2023-01-28T01:35:55;-1.50;99.90
32769;DHT22;23049;54.304;8.826;2023-01-28T01:38:20;-1.50;99.90
32769;DHT22;23049;54.304;8.826;2023-01-28T01:40:46;-1.60;99.90
32769;DHT22;23049;54.304;8.826;2023-01-28T01:43:15;-1.60;99.90
32769;DHT22;23049;54.304;8.826;2023-01-28T01:45:41;-1.70;99.90
32769;DHT22;23049;54.304;8.826;2023-01-28T01:48:15;-1.80;99.90
32769;DHT22;23049;54.304;8.826;2023-01-28T01:53:28;-1.80;99.90
32769;DHT22;23049;54.304;8.826;2023-01-28T01:55:55;-1.70;99.90
32769;DHT22;23049;54.304;8.826;2023-01-28T01:58:23;-1.60;99.90
32769;DHT22;23049;54.304;8.826;2023-01-28T02:00:50;-1.50;99.90
32769;DHT22;23049;54.304;8.826;2023-01-28T02:03:15;-1.40;99.90
32769;DHT22;23049;54.304;8.826;2023-01-28T02:05:43;-1.50;99.90
32769;DHT22;23049;54.304;8.826;2023-01-28T02:08:09;-1.50;99.90
32769;DHT22;23049;54.304;8.826;2023-01-28T02:11:03;-1.70;99.90
32769;DHT22;23049;54.304;8.826;2023-01-28T02:13:32;-1.90;99.90
32769;DHT22;23049;54.304;8.826;2023-01-28T02:15:59;-1.60;99.90
32769;DHT22;23049;54.304;8.826;2023-01-28T02:18:25;-1.40;99.90
32769;DHT22;23049;54.304;8.826;2023-01-28T02:33:33;-1.90;99.90
32769;DHT22;23049;54.304;8.826;2023-01-28T02:36:12;-2.10;99.90
32769;DHT22;23049;54.304;8.826;2023-01-28T02:38:41;-2.20;99.90
32769;DHT22;23049;54.304;8.826;2023-01-28T02:41:08;-1.80;99.90
32769;DHT22;23049;54.304;8.826;2023-01-28T02:43:42;-1.60;99.90
32769;DHT22;23049;54.304;8.826;2023-01-28T02:48:55;-1.40;99.90
32769;DHT22;23049;54.304;8.826;2023-01-28T02:53:50;-1.30;99.90
32769;DHT22;23049;54.304;8.826;2023-01-28T02:56:34;-1.20;99.90
32769;DHT22;23049;54.304;8.826;2023-01-28T03:01:57;-1.20;99.90
32769;DHT22;23049;54.304;8.826;2023-01-28T03:04:27;-1.10;99.90
32769;DHT22;23049;54.304;8.826;2023-01-28T03:06:54;-1.10;99.90
32769;DHT22;23049;54.304;8.826;2023-01-28T03:09:21;-1.00;99.90
32769;DHT22;23049;54.304;8.826;2023-01-28T03:11:49;-0.90;99.90
32769;DHT22;23049;54.304;8.826;2023-01-28T03:14:35;-0.90;99.90
32769;DHT22;23049;54.304;8.826;2023-01-28T03:17:25;-0.90;99.90
32769;DHT22;23049;54.304;8.826;2023-01-28T03:20:11;-0.90;99.90
32769;DHT22;23049;54.304;8.826;2023-01-28T03:22:56;-1.10;99.90
32769;DHT22;23049;54.304;8.826;2023-01-28T03:25:42;-1.40;99.90
32769;DHT22;23049;54.304;8.826;2023-01-28T03:28:26;-1.40;99.90
32769;DHT22;23049;54.304;8.826;2023-01-28T03:31:11;-1.20;99.90
32769;DHT22;23049;54.304;8.826;2023-01-28T03:33:57;-1.10;99.90
32769;DHT22;23049;54.304;8.826;2023-01-28T03:36:41;-1.10;99.90
32769;DHT22;23049;54.304;8.826;2023-01-28T03:39:18;-1.10;99.90
32769;DHT22;23049;54.304;8.826;2023-01-28T03:41:57;-1.10;99.90
32769;DHT22;23049;54.304;8.826;2023-01-28T03:44:23;-1.10;99.90
32769;DHT22;23049;54.304;8.826;2023-01-28T03:47:08;-1.10;99.90
32769;DHT22;23049;54.304;8.826;2023-01-28T03:49:37;-1.40;99.90
32769;DHT22;23049;54.304;8.826;2023-01-28T03:52:02;-1.60;99.90
32769;DHT22;23049;54.304;8.826;2023-01-28T03:54:28;-1.50;99.90
32769;DHT22;23049;54.304;8.826;2023-01-28T03:56:54;-1.60;99.90
32769;DHT22;23049;54.304;8.826;2023-01-28T03:59:19;-1.80;99.90
32769;DHT22;23049;54.304;8.826;2023-01-28T06:33:47;-0.50;99.90
32769;DHT22;23049;54.304;8.826;2023-01-28T06:36:12;0.20;99.90
32769;DHT22;23049;54.304;8.826;2023-01-28T06:38:38;0.10;99.90
32769;DHT22;23049;54.304;8.826;2023-01-28T06:41:03;0.10;99.90
32769;DHT22;23049;54.304;8.826;2023-01-28T06:43:29;0.20;99.90
32769;DHT22;23049;54.304;8.826;2023-01-28T06:45:58;0.20;99.90
32769;DHT22;23049;54.304;8.826;2023-01-28T06:48:24;0.20;99.90
32769;DHT22;23049;54.304;8.826;2023-01-28T06:50:50;0.20;99.90
32769;DHT22;23049;54.304;8.826;2023-01-28T06:53:16;0.30;99.90
32769;DHT22;23049;54.304;8.826;2023-01-28T06:55:42;0.20;99.90
32769;DHT22;23049;54.304;8.826;2023-01-28T06:58:07;0.20;99.90
32769;DHT22;23049;54.304;8.826;2023-01-28T07:00:33;0.20;99.90
32769;DHT22;23049;54.304;8.826;2023-01-28T07:02:58;0.10;99.90
32769;DHT22;23049;54.304;8.826;2023-01-28T07:05:24;0.10;99.90
32769;DHT22;23049;54.304;8.826;2023-01-28T07:07:50;0.20;99.90
32769;DHT22;23049;54.304;8.826;2023-01-28T07:10:15;0.20;99.90
32769;DHT22;23049;54.304;8.826;2023-01-28T07:12:41;0.10;99.90
32769;DHT22;23049;54.304;8.826;2023-01-28T07:15:07;0.20;99.90
32769;DHT22;23049;54.304;8.826;2023-01-28T07:17:33;0.30;99.90
32769;DHT22;23049;54.304;8.826;2023-01-28T07:19:58;0.30;99.90
32769;DHT22;23049;54.304;8.826;2023-01-28T07:22:24;0.30;99.90
32769;DHT22;23049;54.304;8.826;2023-01-28T07:24:49;0.30;99.90
32769;DHT22;23049;54.304;8.826;2023-01-28T07:27:15;0.20;99.90
32769;DHT22;23049;54.304;8.826;2023-01-28T07:29:40;0.40;99.90
32769;DHT22;23049;54.304;8.826;2023-01-28T07:32:05;0.40;99.90
32769;DHT22;23049;54.304;8.826;2023-01-28T07:34:32;0.50;99.90
32769;DHT22;23049;54.304;8.826;2023-01-28T07:36:57;0.50;99.90
32769;DHT22;23049;54.304;8.826;2023-01-28T07:39:23;0.60;99.90
32769;DHT22;23049;54.304;8.826;2023-01-28T07:41:49;0.60;99.90
32769;DHT22;23049;54.304;8.826;2023-01-28T07:44:14;0.70;99.90
32769;DHT22;23049;54.304;8.826;2023-01-28T07:46:40;0.80;99.90
32769;DHT22;23049;54.304;8.826;2023-01-28T07:49:05;0.90;99.90
32769;DHT22;23049;54.304;8.826;2023-01-28T07:51:31;1.00;99.90
32769;DHT22;23049;54.304;8.826;2023-01-28T07:53:56;1.10;99.90
32769;DHT22;23049;54.304;8.826;2023-01-28T07:56:23;1.10;99.90
32769;DHT22;23049;54.304;8.826;2023-01-28T07:58:49;1.10;99.90
32769;DHT22;23049;54.304;8.826;2023-01-28T08:01:14;1.10;99.90
32769;DHT22;23049;54.304;8.826;2023-01-28T08:03:40;1.10;99.90
32769;DHT22;23049;54.304;8.826;2023-01-28T08:06:05;1.20;99.90
32769;DHT22;23049;54.304;8.826;2023-01-28T08:08:31;1.40;99.90
32769;DHT22;23049;54.304;8.826;2023-01-28T08:10:56;1.50;99.90
32769;DHT22;23049;54.304;8.826;2023-01-28T08:13:22;1.50;99.90
32769;DHT22;23049;54.304;8.826;2023-01-28T08:15:48;1.50;99.90
32769;DHT22;23049;54.304;8.826;2023-01-28T08:18:14;1.60;99.90
32769;DHT22;23049;54.304;8.826;2023-01-28T08:20:40;1.60;99.90
32769;DHT22;23049;54.304;8.826;2023-01-28T08:23:07;1.70;99.90
32769;DHT22;23049;54.304;8.826;2023-01-28T08:25:34;1.70;99.90
32769;DHT22;23049;54.304;8.826;2023-01-28T08:27:59;1.70;99.90
32769;DHT22;23049;54.304;8.826;2023-01-28T08:30:25;1.80;99.90
32769;DHT22;23049;54.304;8.826;2023-01-28T08:32:50;1.80;99.90
32769;DHT22;23049;54.304;8.826;2023-01-28T08:35:16;1.90;99.90
32769;DHT22;23049;54.304;8.826;2023-01-28T08:37:41;1.90;99.90
32769;DHT22;23049;54.304;8.826;2023-01-28T08:40:08;1.90;99.90
32769;DHT22;23049;54.304;8.826;2023-01-28T08:42:34;2.00;99.90
32769;DHT22;23049;54.304;8.826;2023-01-28T08:45:00;2.00;99.90
32769;DHT22;23049;54.304;8.826;2023-01-28T08:47:25;2.00;99.90
32769;DHT22;23049;54.304;8.826;2023-01-28T08:49:52;2.00;99.90
32769;DHT22;23049;54.304;8.826;2023-01-28T08:52:18;2.10;99.90
32769;DHT22;23049;54.304;8.826;2023-01-28T08:54:43;2.10;99.90
32769;DHT22;23049;54.304;8.826;2023-01-28T08:57:09;2.20;99.90
32769;DHT22;23049;54.304;8.826;2023-01-28T08:59:34;2.10;99.90
32769;DHT22;23049;54.304;8.826;2023-01-28T09:02:00;2.20;99.90
32769;DHT22;23049;54.304;8.826;2023-01-28T09:04:25;2.20;99.90
32769;DHT22;23049;54.304;8.826;2023-01-28T09:06:52;2.20;99.90
32769;DHT22;23049;54.304;8.826;2023-01-28T09:09:20;2.30;99.90
32769;DHT22;23049;54.304;8.826;2023-01-28T09:11:45;2.30;99.90
32769;DHT22;23049;54.304;8.826;2023-01-28T09:14:11;2.30;99.90
32769;DHT22;23049;54.304;8.826;2023-01-28T09:16:36;2.40;99.90
32769;DHT22;23049;54.304;8.826;2023-01-28T09:19:02;2.40;99.90
32769;DHT22;23049;54.304;8.826;2023-01-28T09:21:27;2.40;99.90
32769;DHT22;23049;54.304;8.826;2023-01-28T09:23:53;2.60;99.90
32769;DHT22;23049;54.304;8.826;2023-01-28T09:26:19;2.70;99.90
32769;DHT22;23049;54.304;8.826;2023-01-28T09:28:46;2.70;99.90
32769;DHT22;23049;54.304;8.826;2023-01-28T09:31:11;2.70;99.90
32769;DHT22;23049;54.304;8.826;2023-01-28T09:33:38;2.70;99.90
32769;DHT22;23049;54.304;8.826;2023-01-28T09:36:04;2.70;99.90
32769;DHT22;23049;54.304;8.826;2023-01-28T09:38:30;2.70;99.90
32769;DHT22;23049;54.304;8.826;2023-01-28T09:40:57;2.80;99.90
32769;DHT22;23049;54.304;8.826;2023-01-28T09:46:09;2.80;99.90
32769;DHT22;23049;54.304;8.826;2023-01-28T09:48:37;2.80;99.90
32769;DHT22;23049;54.304;8.826;2023-01-28T09:51:07;2.80;99.90
32769;DHT22;23049;54.304;8.826;2023-01-28T09:53:35;2.80;99.90
32769;DHT22;23049;54.304;8.826;2023-01-28T09:58:29;2.90;99.90
32769;DHT22;23049;54.304;8.826;2023-01-28T10:03:39;3.00;99.90
32769;DHT22;23049;54.304;8.826;2023-01-28T10:14:22;3.10;99.90
32769;DHT22;23049;54.304;8.826;2023-01-28T10:16:49;3.10;99.90
32769;DHT22;23049;54.304;8.826;2023-01-28T10:19:21;3.20;99.90
32769;DHT22;23049;54.304;8.826;2023-01-28T10:22:08;3.20;99.90
32769;DHT22;23049;54.304;8.826;2023-01-28T10:24:46;3.20;99.90
32769;DHT22;23049;54.304;8.826;2023-01-28T10:27:18;3.30;99.90
32769;DHT22;23049;54.304;8.826;2023-01-28T10:29:44;3.40;99.90
32769;DHT22;23049;54.304;8.826;2023-01-28T10:32:16;3.40;99.90
32769;DHT22;23049;54.304;8.826;2023-01-28T10:34:45;3.40;99.90
32769;DHT22;23049;54.304;8.826;2023-01-28T10:37:13;3.50;99.90
32769;DHT22;23049;54.304;8.826;2023-01-28T10:39:40;3.50;99.90
32769;DHT22;23049;54.304;8.826;2023-01-28T10:42:15;3.50;99.90
32769;DHT22;23049;54.304;8.826;2023-01-28T10:44:42;3.60;99.90
32769;DHT22;23049;54.304;8.826;2023-01-28T10:47:12;3.60;99.90
32769;DHT22;23049;54.304;8.826;2023-01-28T10:49:41;3.60;99.90
32769;DHT22;23049;54.304;8.826;2023-01-28T10:52:14;3.70;99.90
32769;DHT22;23049;54.304;8.826;2023-01-28T10:54:40;3.70;99.90
32769;DHT22;23049;54.304;8.826;2023-01-28T10:57:12;3.70;99.90
32769;DHT22;23049;54.304;8.826;2023-01-28T10:59:39;3.70;99.90
32769;DHT22;23049;54.304;8.826;2023-01-28T11:07:25;3.80;99.90
32769;DHT22;23049;54.304;8.826;2023-01-28T11:09:51;3.80;99.90
32769;DHT22;23049;54.304;8.826;2023-01-28T11:12:21;3.90;99.90
32769;DHT22;23049;54.304;8.826;2023-01-28T11:14:54;3.90;99.90
32769;DHT22;23049;54.304;8.826;2023-01-28T11:17:20;3.80;99.90
32769;DHT22;23049;54.304;8.826;2023-01-28T11:19:47;3.90;99.90
32769;DHT22;23049;54.304;8.826;2023-01-28T11:22:35;3.90;99.90
32769;DHT22;23049;54.304;8.826;2023-01-28T11:25:00;4.00;99.90
32769;DHT22;23049;54.304;8.826;2023-01-28T11:27:29;4.00;99.90
32769;DHT22;23049;54.304;8.826;2023-01-28T11:29:56;4.00;99.90
32769;DHT22;23049;54.304;8.826;2023-01-28T11:32:24;4.00;99.90
32769;DHT22;23049;54.304;8.826;2023-01-28T11:34:51;4.10;99.90
32769;DHT22;23049;54.304;8.826;2023-01-28T11:37:16;4.20;99.90
32769;DHT22;23049;54.304;8.826;2023-01-28T11:39:45;4.20;99.90
32769;DHT22;23049;54.304;8.826;2023-01-28T11:42:12;4.30;99.90
32769;DHT22;23049;54.304;8.826;2023-01-28T11:44:38;4.40;99.90
32769;DHT22;23049;54.304;8.826;2023-01-28T11:57:30;4.60;99.90
32769;DHT22;23049;54.304;8.826;2023-01-28T12:10:25;4.60;99.90
32769;DHT22;23049;54.304;8.826;2023-01-28T12:15:53;4.60;99.90
32769;DHT22;23049;54.304;8.826;2023-01-28T12:21:01;4.80;99.90
32769;DHT22;23049;54.304;8.826;2023-01-28T12:26:36;4.80;99.90
32769;DHT22;23049;54.304;8.826;2023-01-28T12:29:14;4.90;99.90
32769;DHT22;23049;54.304;8.826;2023-01-28T12:37:06;5.10;99.90
32769;DHT22;23049;54.304;8.826;2023-01-28T12:44:59;5.40;99.90
32769;DHT22;23049;54.304;8.826;2023-01-28T12:47:28;5.40;99.90
32769;DHT22;23049;54.304;8.826;2023-01-28T12:50:00;5.40;99.90
32769;DHT22;23049;54.304;8.826;2023-01-28T12:52:29;5.40;99.90
32769;DHT22;23049;54.304;8.826;2023-01-28T12:57:23;5.50;99.90
32769;DHT22;23049;54.304;8.826;2023-01-28T13:02:34;5.50;99.90
32769;DHT22;23049;54.304;8.826;2023-01-28T13:05:07;5.50;99.90
32769;DHT22;23049;54.304;8.826;2023-01-28T13:10:39;5.50;99.90
32769;DHT22;23049;54.304;8.826;2023-01-28T13:13:06;5.50;99.90
32769;DHT22;23049;54.304;8.826;2023-01-28T13:15:32;5.60;99.90
32769;DHT22;23049;54.304;8.826;2023-01-28T13:18:02;5.60;99.90
32769;DHT22;23049;54.304;8.826;2023-01-28T13:23:01;5.60;99.90
32769;DHT22;23049;54.304;8.826;2023-01-28T13:25:27;5.60;99.90
32769;DHT22;23049;54.304;8.826;2023-01-28T13:27:53;5.60;99.90
32769;DHT22;23049;54.304;8.826;2023-01-28T13:32:54;5.60;99.90
32769;DHT22;23049;54.304;8.826;2023-01-28T13:37:54;5.60;99.90
32769;DHT22;23049;54.304;8.826;2023-01-28T13:40:25;5.50;99.90
32769;DHT22;23049;54.304;8.826;2023-01-28T13:42:58;5.50;99.90
32769;DHT22;23049;54.304;8.826;2023-01-28T13:45:24;5.50;99.90
32769;DHT22;23049;54.304;8.826;2023-01-28T13:47:52;5.50;99.90
32769;DHT22;23049;54.304;8.826;2023-01-28T13:50:19;5.50;99.90
32769;DHT22;23049;54.304;8.826;2023-01-28T13:52:49;5.50;99.90
32769;DHT22;23049;54.304;8.826;2023-01-28T13:55:17;5.50;99.90
32769;DHT22;23049;54.304;8.826;2023-01-28T14:06:08;5.60;99.90
32769;DHT22;23049;54.304;8.826;2023-01-28T14:16:20;5.50;99.90
32769;DHT22;23049;54.304;8.826;2023-01-28T14:18:47;5.40;99.90
32769;DHT22;23049;54.304;8.826;2023-01-28T14:21:17;5.40;99.90
32769;DHT22;23049;54.304;8.826;2023-01-28T14:23:47;5.40;99.90
32769;DHT22;23049;54.304;8.826;2023-01-28T14:26:15;5.30;99.90
32769;DHT22;23049;54.304;8.826;2023-01-28T14:28:48;5.30;99.90
32769;DHT22;23049;54.304;8.826;2023-01-28T14:34:27;5.30;99.90
32769;DHT22;23049;54.304;8.826;2023-01-28T14:36:54;5.30;99.90
32769;DHT22;23049;54.304;8.826;2023-01-28T14:39:25;5.30;99.90
32769;DHT22;23049;54.304;8.826;2023-01-28T14:41:52;5.20;99.90
32769;DHT22;23049;54.304;8.826;2023-01-28T14:44:35;5.20;99.90
32769;DHT22;23049;54.304;8.826;2023-01-28T14:49:57;5.20;99.90
32769;DHT22;23049;54.304;8.826;2023-01-28T14:55:03;5.20;99.90
32769;DHT22;23049;54.304;8.826;2023-01-28T14:57:36;5.20;99.90
32769;DHT22;23049;54.304;8.826;2023-01-28T15:00:13;5.20;99.90
32769;DHT22;23049;54.304;8.826;2023-01-28T15:02:41;5.20;99.90
32769;DHT22;23049;54.304;8.826;2023-01-28T15:05:08;5.20;99.90
32769;DHT22;23049;54.304;8.826;2023-01-28T15:07:34;5.20;99.90
32769;DHT22;23049;54.304;8.826;2023-01-28T15:10:07;5.20;99.90
32769;DHT22;23049;54.304;8.826;2023-01-28T15:12:40;5.10;99.90
32769;DHT22;23049;54.304;8.826;2023-01-28T15:15:10;5.10;99.90
32769;DHT22;23049;54.304;8.826;2023-01-28T15:17:37;5.20;99.90
32769;DHT22;23049;54.304;8.826;2023-01-28T15:20:05;5.20;99.90
32769;DHT22;23049;54.304;8.826;2023-01-28T15:22:31;5.10;99.90
32769;DHT22;23049;54.304;8.826;2023-01-28T15:24:56;5.20;99.90
32769;DHT22;23049;54.304;8.826;2023-01-28T15:27:31;5.10;99.90
32769;DHT22;23049;54.304;8.826;2023-01-28T15:29:57;5.10;99.90
32769;DHT22;23049;54.304;8.826;2023-01-28T15:32:29;5.20;99.90
32769;DHT22;23049;54.304;8.826;2023-01-28T15:34:55;5.20;99.90
32769;DHT22;23049;54.304;8.826;2023-01-28T15:37:23;5.20;99.90
32769;DHT22;23049;54.304;8.826;2023-01-28T15:39:58;5.20;99.90
32769;DHT22;23049;54.304;8.826;2023-01-28T15:42:24;5.10;99.90
32769;DHT22;23049;54.304;8.826;2023-01-28T15:44:53;5.20;99.90
32769;DHT22;23049;54.304;8.826;2023-01-28T15:47:26;5.20;99.90
32769;DHT22;23049;54.304;8.826;2023-01-28T15:49:53;5.20;99.90
32769;DHT22;23049;54.304;8.826;2023-01-28T15:52:19;5.20;99.90
32769;DHT22;23049;54.304;8.826;2023-01-28T15:54:49;5.20;99.90
32769;DHT22;23049;54.304;8.826;2023-01-28T15:57:17;5.20;99.90
32769;DHT22;23049;54.304;8.826;2023-01-28T15:59:43;5.20;99.90
32769;DHT22;23049;54.304;8.826;2023-01-28T16:02:15;5.20;99.90
32769;DHT22;23049;54.304;8.826;2023-01-28T16:04:42;5.20;99.90
32769;DHT22;23049;54.304;8.826;2023-01-28T16:07:07;5.30;99.90
32769;DHT22;23049;54.304;8.826;2023-01-28T16:09:33;5.30;99.90
32769;DHT22;23049;54.304;8.826;2023-01-28T16:12:06;5.20;99.90
32769;DHT22;23049;54.304;8.826;2023-01-28T16:17:16;5.30;99.90
32769;DHT22;23049;54.304;8.826;2023-01-28T16:19:43;5.20;99.90
32769;DHT22;23049;54.304;8.826;2023-01-28T16:22:21;5.20;99.90
32769;DHT22;23049;54.304;8.826;2023-01-28T16:24:51;5.20;99.90
32769;DHT22;23049;54.304;8.826;2023-01-28T16:27:19;5.20;99.90
32769;DHT22;23049;54.304;8.826;2023-01-28T16:29:45;5.20;99.90
32769;DHT22;23049;54.304;8.826;2023-01-28T16:34:55;5.20;99.90
32769;DHT22;23049;54.304;8.826;2023-01-28T16:37:20;5.20;99.90
32769;DHT22;23049;54.304;8.826;2023-01-28T16:39:47;5.20;99.90
32769;DHT22;23049;54.304;8.826;2023-01-28T16:42:12;5.20;99.90
32769;DHT22;23049;54.304;8.826;2023-01-28T16:44:38;5.30;99.90
32769;DHT22;23049;54.304;8.826;2023-01-28T16:47:04;5.30;99.90
32769;DHT22;23049;54.304;8.826;2023-01-28T16:49:29;5.30;99.90
32769;DHT22;23049;54.304;8.826;2023-01-28T16:51:55;5.30;99.90
32769;DHT22;23049;54.304;8.826;2023-01-28T16:54:20;5.30;99.90
32769;DHT22;23049;54.304;8.826;2023-01-28T16:56:46;5.30;99.90
32769;DHT22;23049;54.304;8.826;2023-01-28T16:59:12;5.30;99.90
32769;DHT22;23049;54.304;8.826;2023-01-28T17:01:39;5.30;99.90
32769;DHT22;23049;54.304;8.826;2023-01-28T17:04:04;5.30;99.90
32769;DHT22;23049;54.304;8.826;2023-01-28T17:06:33;5.30;99.90
32769;DHT22;23049;54.304;8.826;2023-01-28T17:09:00;5.30;99.90
32769;DHT22;23049;54.304;8.826;2023-01-28T17:11:29;5.30;99.90
32769;DHT22;23049;54.304;8.826;2023-01-28T17:13:54;5.30;99.90
32769;DHT22;23049;54.304;8.826;2023-01-28T17:16:20;5.30;99.90
32769;DHT22;23049;54.304;8.826;2023-01-28T17:18:48;5.20;99.90
32769;DHT22;23049;54.304;8.826;2023-01-28T17:21:14;5.30;99.90
32769;DHT22;23049;54.304;8.826;2023-01-28T17:23:39;5.20;99.90
32769;DHT22;23049;54.304;8.826;2023-01-28T17:26:05;5.30;99.90
32769;DHT22;23049;54.304;8.826;2023-01-28T17:28:31;5.20;99.90
32769;DHT22;23049;54.304;8.826;2023-01-28T17:30:57;5.20;99.90
32769;DHT22;23049;54.304;8.826;2023-01-28T17:33:22;5.30;99.90
32769;DHT22;23049;54.304;8.826;2023-01-28T17:35:48;5.30;99.90
32769;DHT22;23049;54.304;8.826;2023-01-28T17:38:13;5.30;99.90
32769;DHT22;23049;54.304;8.826;2023-01-28T17:40:39;5.30;99.90
32769;DHT22;23049;54.304;8.826;2023-01-28T17:43:04;5.30;99.90
32769;DHT22;23049;54.304;8.826;2023-01-28T17:45:30;5.30;99.90
32769;DHT22;23049;54.304;8.826;2023-01-28T17:47:56;5.30;99.90
32769;DHT22;23049;54.304;8.826;2023-01-28T17:50:21;5.30;99.90
32769;DHT22;23049;54.304;8.826;2023-01-28T17:52:47;5.30;99.90
32769;DHT22;23049;54.304;8.826;2023-01-28T17:55:13;5.30;99.90
32769;DHT22;23049;54.304;8.826;2023-01-28T17:57:38;5.30;99.90
32769;DHT22;23049;54.304;8.826;2023-01-28T18:00:04;5.30;99.90
32769;DHT22;23049;54.304;8.826;2023-01-28T18:02:30;5.30;99.90
32769;DHT22;23049;54.304;8.826;2023-01-28T18:04:56;5.30;99.90
32769;DHT22;23049;54.304;8.826;2023-01-28T18:07:21;5.30;99.90
32769;DHT22;23049;54.304;8.826;2023-01-28T18:09:47;5.40;99.90
32769;DHT22;23049;54.304;8.826;2023-01-28T18:12:13;5.40;99.90
32769;DHT22;23049;54.304;8.826;2023-01-28T18:14:39;5.40;99.90
32769;DHT22;23049;54.304;8.826;2023-01-28T18:17:05;5.40;99.90
32769;DHT22;23049;54.304;8.826;2023-01-28T18:19:31;5.40;99.90
32769;DHT22;23049;54.304;8.826;2023-01-28T18:21:57;5.40;99.90
32769;DHT22;23049;54.304;8.826;2023-01-28T18:24:24;5.40;99.90
32769;DHT22;23049;54.304;8.826;2023-01-28T18:26:50;5.30;99.90
32769;DHT22;23049;54.304;8.826;2023-01-28T18:29:16;5.30;99.90
32769;DHT22;23049;54.304;8.826;2023-01-28T18:31:45;5.30;99.90
32769;DHT22;23049;54.304;8.826;2023-01-28T18:34:11;5.30;99.90
32769;DHT22;23049;54.304;8.826;2023-01-28T18:36:36;5.30;99.90
32769;DHT22;23049;54.304;8.826;2023-01-28T18:39:02;5.30;99.90
32769;DHT22;23049;54.304;8.826;2023-01-28T18:41:27;5.30;99.90
32769;DHT22;23049;54.304;8.826;2023-01-28T18:43:53;5.30;99.90
32769;DHT22;23049;54.304;8.826;2023-01-28T18:46:18;5.30;99.90
32769;DHT22;23049;54.304;8.826;2023-01-28T18:48:44;5.30;99.90
32769;DHT22;23049;54.304;8.826;2023-01-28T18:51:13;5.30;99.90
32769;DHT22;23049;54.304;8.826;2023-01-28T18:53:38;5.30;99.90
32769;DHT22;23049;54.304;8.826;2023-01-28T18:56:05;5.40;99.90
32769;DHT22;23049;54.304;8.826;2023-01-28T18:58:30;5.40;99.90
32769;DHT22;23049;54.304;8.826;2023-01-28T19:00:56;5.40;99.90
32769;DHT22;23049;54.304;8.826;2023-01-28T19:03:22;5.40;99.90
32769;DHT22;23049;54.304;8.826;2023-01-28T19:05:47;5.40;99.90
32769;DHT22;23049;54.304;8.826;2023-01-28T19:08:13;5.50;99.90
32769;DHT22;23049;54.304;8.826;2023-01-28T19:10:38;5.50;99.90
32769;DHT22;23049;54.304;8.826;2023-01-28T19:13:04;5.60;99.90
32769;DHT22;23049;54.304;8.826;2023-01-28T19:15:30;5.60;99.90
32769;DHT22;23049;54.304;8.826;2023-01-28T19:17:55;5.70;99.90
32769;DHT22;23049;54.304;8.826;2023-01-28T19:20:21;5.80;99.90
32769;DHT22;23049;54.304;8.826;2023-01-28T19:22:46;5.80;99.90
32769;DHT22;23049;54.304;8.826;2023-01-28T19:25:12;5.80;99.90
32769;DHT22;23049;54.304;8.826;2023-01-28T19:27:38;5.90;99.90
32769;DHT22;23049;54.304;8.826;2023-01-28T19:30:04;5.90;99.90
32769;DHT22;23049;54.304;8.826;2023-01-28T19:32:29;5.90;99.90
32769;DHT22;23049;54.304;8.826;2023-01-28T19:34:55;6.00;99.90
32769;DHT22;23049;54.304;8.826;2023-01-28T19:37:21;5.90;99.90
32769;DHT22;23049;54.304;8.826;2023-01-28T19:39:47;5.90;99.90
32769;DHT22;23049;54.304;8.826;2023-01-28T19:42:12;5.90;99.90
32769;DHT22;23049;54.304;8.826;2023-01-28T19:44:38;5.90;99.90
32769;DHT22;23049;54.304;8.826;2023-01-28T19:47:03;6.00;99.90
32769;DHT22;23049;54.304;8.826;2023-01-28T19:49:32;6.00;99.90
32769;DHT22;23049;54.304;8.826;2023-01-28T19:51:58;6.00;99.90
32769;DHT22;23049;54.304;8.826;2023-01-28T19:54:24;6.00;99.90
32769;DHT22;23049;54.304;8.826;2023-01-28T19:56:49;6.00;99.90
32769;DHT22;23049;54.304;8.826;2023-01-28T19:59:15;5.90;99.90
32769;DHT22;23049;54.304;8.826;2023-01-28T20:01:41;6.00;99.90
32769;DHT22;23049;54.304;8.826;2023-01-28T20:04:06;6.00;99.90
32769;DHT22;23049;54.304;8.826;2023-01-28T20:06:32;6.00;99.90
32769;DHT22;23049;54.304;8.826;2023-01-28T20:09:00;6.00;99.90
32769;DHT22;23049;54.304;8.826;2023-01-28T20:11:26;6.00;99.90
32769;DHT22;23049;54.304;8.826;2023-01-28T20:13:53;6.00;99.90
32769;DHT22;23049;54.304;8.826;2023-01-28T20:16:22;6.00;99.90
32769;DHT22;23049;54.304;8.826;2023-01-28T20:18:52;6.00;99.90
32769;DHT22;23049;54.304;8.826;2023-01-28T20:21:18;6.10;99.90
32769;DHT22;23049;54.304;8.826;2023-01-28T20:23:45;6.10;99.90
32769;DHT22;23049;54.304;8.826;2023-01-28T20:26:10;6.00;99.90
32769;DHT22;23049;54.304;8.826;2023-01-28T20:28:36;6.10;99.90